Time;durP1;ratioP1;P1;durP2;ratioP2;P2;SDS_P1;SDS_P2;PMS_P1;PMS_P2;Temp;Humidity;BMP_temperature;BMP_pressure;BME280_temperature;BME280_humidity;BME280_pressure;Samples;Min_cycle;Max_cycle;Signal;HPM_P1;HPM_P2
2023/02/15 00:00:23;;;;;;;46.90;18.30;;;;;;;-1.98;100.00;102404.69;5030654;28;20219;-72
2023/02/15 00:02:50;;;;;;;43.43;19.20;;;;;;;-1.94;100.00;102401.50;5032555;28;20719;-72
2023/02/15 00:05:17;;;;;;;41.80;17.13;;;;;;;-1.93;100.00;102404.94;5034375;28;20687;-71
2023/02/15 00:07:43;;;;;;;42.63;18.87;;;;;;;-1.94;100.00;102406.59;5030688;28;20215;-72
2023/02/15 00:10:11;;;;;;;41.87;18.27;;;;;;;-1.94;100.00;102403.19;5033903;28;20227;-72
2023/02/15 00:12:38;;;;;;;38.67;18.67;;;;;;;-1.96;100.00;102410.75;5031496;28;20585;-71
2023/02/15 00:15:04;;;;;;;41.13;18.50;;;;;;;-2.01;100.00;102398.53;5029828;28;20652;-71
2023/02/15 00:17:31;;;;;;;39.47;17.80;;;;;;;-2.05;100.00;102404.28;5030800;28;20210;-72
2023/02/15 00:19:58;;;;;;;43.97;20.03;;;;;;;-2.07;100.00;102399.09;5033498;28;20227;-72
2023/02/15 00:22:26;;;;;;;46.87;18.33;;;;;;;-2.07;100.00;102401.66;5029819;28;20215;-72
2023/02/15 00:24:52;;;;;;;43.20;18.13;;;;;;;-2.04;100.00;102395.81;5032720;28;20424;-71
2023/02/15 00:27:19;;;;;;;39.27;18.67;;;;;;;-2.04;100.00;102395.81;5037997;28;20218;-71
2023/02/15 00:29:45;;;;;;;45.57;18.83;;;;;;;-2.04;100.00;102393.25;5035974;28;20207;-72
2023/02/15 00:32:11;;;;;;;37.23;18.63;;;;;;;-2.05;100.00;102394.06;5032933;28;20278;-71
2023/02/15 00:34:38;;;;;;;35.10;18.30;;;;;;;-2.02;100.00;102386.53;5036963;28;20199;-72
2023/02/15 00:37:05;;;;;;;46.13;18.93;;;;;;;-2.03;100.00;102388.22;5031386;28;20272;-72
2023/02/15 00:39:33;;;;;;;43.00;18.60;;;;;;;-2.04;100.00;102376.25;5035210;28;20211;-72
2023/02/15 00:41:59;;;;;;;42.97;19.27;;;;;;;-2.07;100.00;102370.09;5049130;22;20296;-72
2023/02/15 00:44:25;;;;;;;39.33;17.10;;;;;;;-2.08;100.00;102370.88;5035303;28;20223;-71
2023/02/15 00:46:52;;;;;;;47.03;19.03;;;;;;;-2.08;100.00;102373.44;5055074;28;20194;-71
2023/02/15 00:49:20;;;;;;;41.90;18.33;;;;;;;-2.15;100.00;102375.66;5036293;28;20196;-71
2023/02/15 00:51:47;;;;;;;43.37;17.57;;;;;;;-2.17;100.00;102372.16;5042325;28;20695;-71
2023/02/15 00:54:14;;;;;;;40.57;18.47;;;;;;;-2.19;100.00;102368.63;5034017;28;20206;-72
2023/02/15 00:56:41;;;;;;;42.37;19.17;;;;;;;-2.18;100.00;102361.84;5043430;28;20263;-72
2023/02/15 00:59:09;;;;;;;42.47;18.93;;;;;;;-2.23;100.00;102356.50;5020794;28;20219;-71
2023/02/15 01:01:35;;;;;;;47.57;19.93;;;;;;;-2.27;100.00;102357.09;5024121;28;20239;-72
2023/02/15 01:04:02;;;;;;;44.03;18.10;;;;;;;-2.29;100.00;102363.81;5041642;28;20199;-72
2023/02/15 01:06:29;;;;;;;38.43;19.10;;;;;;;-2.33;100.00;102359.34;5025810;28;20226;-71
2023/02/15 01:08:55;;;;;;;41.00;18.37;;;;;;;-2.39;100.00;102364.09;5024823;28;20696;-71
2023/02/15 01:11:25;;;;;;;39.20;18.47;;;;;;;-2.38;100.00;102363.31;5020985;28;20213;-72
2023/02/15 01:13:53;;;;;;;42.63;17.87;;;;;;;-2.34;100.00;102360.13;5022900;28;20192;-71
2023/02/15 01:16:20;;;;;;;40.57;18.33;;;;;;;-2.41;100.00;102361.50;5042708;28;20695;-72
2023/02/15 01:18:47;;;;;;;37.20;17.23;;;;;;;-2.48;100.00;102361.94;5041244;28;20200;-72
2023/02/15 01:21:17;;;;;;;45.97;19.20;;;;;;;-2.43;100.00;102351.97;5022041;28;20221;-72
2023/02/15 01:23:44;;;;;;;35.30;16.67;;;;;;;-2.51;100.00;102351.56;5039339;28;20203;-71
2023/02/15 01:26:13;;;;;;;47.07;20.80;;;;;;;-2.56;100.00;102350.44;5027643;28;20204;-72
2023/02/15 01:28:41;;;;;;;39.90;19.13;;;;;;;-2.47;100.00;102341.59;5039558;28;20214;-72
2023/02/15 01:31:08;;;;;;;41.87;17.47;;;;;;;-2.53;100.00;102343.81;5024363;28;20211;-72
2023/02/15 01:33:36;;;;;;;47.67;19.83;;;;;;;-2.53;100.00;102343.81;5041968;28;20198;-72
2023/02/15 01:36:04;;;;;;;45.20;20.27;;;;;;;-2.45;100.00;102344.22;5042265;28;21337;-71
2023/02/15 01:38:33;;;;;;;44.27;19.00;;;;;;;-2.63;100.00;102333.88;5041609;28;20889;-72
2023/02/15 01:41:19;;;;;;;38.37;18.40;;;;;;;-2.64;100.00;102341.47;5040992;28;20227;-72
2023/02/15 01:43:48;;;;;;;41.43;19.17;;;;;;;-2.67;100.00;102337.06;5040448;28;20218;-72
2023/02/15 01:46:17;;;;;;;35.17;17.20;;;;;;;-2.76;100.00;102339.09;5041435;28;20227;-71
2023/02/15 01:48:47;;;;;;;37.57;16.73;;;;;;;-2.69;100.00;102333.53;5027129;28;20203;-72
2023/02/15 01:51:16;;;;;;;36.83;16.80;;;;;;;-2.73;100.00;102329.06;5024036;28;20250;-72
2023/02/15 01:53:48;;;;;;;37.27;16.50;;;;;;;-2.88;100.00;102324.00;5031902;28;20203;-72
2023/02/15 01:56:17;;;;;;;36.03;16.77;;;;;;;-2.77;100.00;102315.25;5023009;28;20208;-71
2023/02/15 01:58:52;;;;;;;36.80;16.77;;;;;;;-2.77;100.00;102312.69;5022573;28;20204;-71
2023/02/15 02:01:20;;;;;;;37.60;17.97;;;;;;;-2.87;100.00;102315.53;5022002;28;20216;-72
2023/02/15 02:03:56;;;;;;;36.27;16.83;;;;;;;-2.82;100.00;102303.03;5037596;28;20211;-71
2023/02/15 02:06:23;;;;;;;38.27;17.70;;;;;;;-2.81;100.00;102299.66;5021258;28;20203;-72
2023/02/15 02:08:49;;;;;;;32.13;16.27;;;;;;;-2.79;100.00;102306.63;5024702;28;20730;-71
2023/02/15 02:11:16;;;;;;;36.33;15.67;;;;;;;-2.91;100.00;102304.25;5023336;28;20394;-71
2023/02/15 02:13:47;;;;;;;42.37;17.87;;;;;;;-2.90;100.00;102307.72;5044177;28;20192;-72
2023/02/15 02:16:20;;;;;;;37.57;17.53;;;;;;;-2.82;100.00;102296.22;5043090;28;21370;-72
2023/02/15 02:18:59;;;;;;;41.17;15.97;;;;;;;-2.85;100.00;102306.28;5044649;28;20881;-72
2023/02/15 02:21:49;;;;;;;34.47;15.20;;;;;;;-3.17;100.00;102301.94;5042619;28;20306;-71
2023/02/15 02:24:46;;;;;;;37.53;16.33;;;;;;;-3.18;100.00;102301.06;5043989;28;21040;-71
2023/02/15 02:27:27;;;;;;;36.53;16.60;;;;;;;-3.13;100.00;102296.19;5023952;28;20540;-72
2023/02/15 02:30:38;;;;;;;35.83;15.37;;;;;;;-3.14;100.00;102291.91;5027494;28;20208;-72
2023/02/15 02:33:32;;;;;;;37.57;15.17;;;;;;;-3.12;100.00;102285.19;4985192;28;20721;-72
2023/02/15 02:36:09;;;;;;;39.80;17.53;;;;;;;-3.23;100.00;102274.41;5020857;28;20489;-72
2023/02/15 02:38:49;;;;;;;40.43;17.30;;;;;;;-3.30;100.00;102274.84;5046335;28;20931;-72
2023/02/15 02:41:21;;;;;;;35.93;17.67;;;;;;;-3.27;100.00;102281.00;5020851;28;20486;-72
2023/02/15 02:43:52;;;;;;;36.43;17.17;;;;;;;-3.30;100.00;102282.50;5037216;28;20696;-71
2023/02/15 02:46:23;;;;;;;39.17;17.47;;;;;;;-3.31;100.00;102283.28;5030510;28;20457;-71
2023/02/15 02:48:51;;;;;;;34.93;16.70;;;;;;;-3.27;100.00;102282.69;5047410;28;20465;-72
2023/02/15 02:51:21;;;;;;;36.60;16.53;;;;;;;-3.28;100.00;102286.00;5044240;28;20586;-72
2023/02/15 02:53:52;;;;;;;36.77;16.27;;;;;;;-3.26;100.00;102289.53;5027426;28;20497;-72
2023/02/15 02:56:25;;;;;;;42.57;17.43;;;;;;;-3.41;100.00;102287.00;5022869;28;21032;-71
2023/02/15 02:58:59;;;;;;;38.67;18.37;;;;;;;-3.31;100.00;102290.94;5042392;28;20493;-72
2023/02/15 03:01:30;;;;;;;34.50;16.77;;;;;;;-3.32;100.00;102287.50;5042830;28;20516;-72
2023/02/15 03:04:01;;;;;;;35.50;15.20;;;;;;;-3.60;100.00;102289.28;5022246;28;20577;-71
2023/02/15 03:06:36;;;;;;;36.40;17.50;;;;;;;-3.59;100.00;102285.91;5042908;28;20458;-72
2023/02/15 03:09:07;;;;;;;48.83;17.77;;;;;;;-3.69;100.00;102287.94;5024234;28;21721;-72
2023/02/15 03:11:34;;;;;;;33.70;15.87;;;;;;;-3.66;100.00;102289.78;5024359;28;21026;-72
2023/02/15 03:14:01;;;;;;;31.60;15.00;;;;;;;-3.73;100.00;102286.00;5023360;28;20452;-72
2023/02/15 03:16:28;;;;;;;32.77;15.97;;;;;;;-3.70;100.00;102285.28;5028139;28;20517;-71
2023/02/15 03:18:59;;;;;;;36.20;18.10;;;;;;;-3.62;100.00;102281.53;5024151;28;20203;-72
2023/02/15 03:21:32;;;;;;;37.40;17.33;;;;;;;-3.67;100.00;102276.16;5046562;28;20836;-72
2023/02/15 03:24:02;;;;;;;37.50;17.57;;;;;;;-3.57;100.00;102274.13;5024395;28;20477;-72
2023/02/15 03:26:31;;;;;;;35.23;15.97;;;;;;;-3.60;100.00;102277.41;5029211;28;20460;-72
2023/02/15 03:29:01;;;;;;;35.30;16.63;;;;;;;-3.45;100.00;102275.75;5024488;28;20463;-71
2023/02/15 03:31:31;;;;;;;34.77;17.10;;;;;;;-3.43;100.00;102275.78;5024108;28;20477;-72
2023/02/15 03:34:02;;;;;;;31.77;14.77;;;;;;;-3.47;100.00;102268.78;5046974;28;20453;-72
2023/02/15 03:36:34;;;;;;;37.40;16.27;;;;;;;-3.93;100.00;102273.75;5040054;28;20477;-71
2023/02/15 03:39:08;;;;;;;36.73;15.87;;;;;;;-3.86;100.00;102271.63;5044449;28;20451;-71
2023/02/15 03:41:41;;;;;;;31.20;14.17;;;;;;;-3.74;100.00;102268.94;5023695;28;20920;-71
2023/02/15 03:44:13;;;;;;;29.90;14.47;;;;;;;-3.70;100.00;102265.78;5027446;28;20786;-71
2023/02/15 03:46:46;;;;;;;36.03;15.97;;;;;;;-3.75;100.00;102261.19;5045630;28;20460;-72
2023/02/15 03:49:19;;;;;;;37.23;16.77;;;;;;;-4.04;100.00;102268.03;5022965;28;20457;-71
2023/02/15 03:51:49;;;;;;;35.07;15.00;;;;;;;-4.04;100.00;102268.03;5035944;28;20485;-72
2023/02/15 04:02:37;;;;;;;35.43;16.43;;;;;;;-3.97;100.00;102253.94;5041769;28;20482;-72
2023/02/15 04:05:05;;;;;;;35.87;16.30;;;;;;;-3.79;100.00;102256.72;5023173;28;20475;-72
2023/02/15 04:07:31;;;;;;;32.70;16.10;;;;;;;-3.76;100.00;102244.13;5040900;28;20475;-71
2023/02/15 04:12:41;;;;;;;37.07;16.93;;;;;;;-3.71;100.00;102250.38;5017446;28;20492;-71
2023/02/15 04:17:56;;;;;;;35.53;15.30;;;;;;;-3.64;100.00;102239.75;5042202;28;20450;-72
2023/02/15 04:25:52;;;;;;;40.83;18.63;;;;;;;-3.92;100.00;102230.50;5039141;28;21094;-72
2023/02/15 04:28:18;;;;;;;41.67;18.37;;;;;;;-4.05;100.00;102231.44;5037382;28;20452;-72
2023/02/15 04:30:45;;;;;;;44.13;19.00;;;;;;;-4.07;100.00;102233.03;5016760;28;20476;-72
2023/02/15 04:33:11;;;;;;;50.30;21.83;;;;;;;-4.10;100.00;102240.47;5019539;28;20467;-72
2023/02/15 04:35:39;;;;;;;42.97;19.07;;;;;;;-4.12;100.00;102231.00;5038950;28;20461;-71
2023/02/15 04:38:05;;;;;;;36.73;19.30;;;;;;;-4.15;100.00;102226.63;5025340;28;20458;-72
2023/02/15 04:40:31;;;;;;;43.57;19.93;;;;;;;-4.05;100.00;102239.09;5043294;28;20493;-72
2023/02/15 04:42:58;;;;;;;37.90;16.37;;;;;;;-3.89;100.00;102227.25;5022424;28;20482;-72
2023/02/15 04:45:24;;;;;;;51.17;19.13;;;;;;;-3.98;100.00;102230.13;5037378;28;20976;-72
2023/02/15 04:47:50;;;;;;;46.03;18.93;;;;;;;-4.03;100.00;102222.25;5039936;28;20455;-72
2023/02/15 04:50:17;;;;;;;40.63;18.90;;;;;;;-4.03;100.00;102224.78;5039910;28;20828;-71
2023/02/15 04:52:44;;;;;;;41.63;19.27;;;;;;;-3.95;100.00;102221.81;5036990;28;20453;-72
2023/02/15 04:55:11;;;;;;;33.83;15.47;;;;;;;-3.99;100.00;102218.22;5035645;28;20472;-71
2023/02/15 04:57:37;;;;;;;40.20;18.57;;;;;;;-4.05;100.00;102218.69;5022822;28;20965;-72
2023/02/15 05:00:04;;;;;;;43.37;18.37;;;;;;;-4.22;100.00;102212.63;5037593;28;21366;-72
2023/02/15 05:02:31;;;;;;;38.43;16.67;;;;;;;-4.10;100.00;102212.44;5019183;28;20475;-72
2023/02/15 05:04:57;;;;;;;42.87;16.33;;;;;;;-4.04;100.00;102215.38;5040449;28;20812;-72
2023/02/15 05:07:23;;;;;;;37.33;16.97;;;;;;;-4.02;100.00;102211.25;5039714;28;20473;-72
2023/02/15 05:09:51;;;;;;;46.77;17.13;;;;;;;-4.07;100.00;102207.53;5038569;28;20489;-71
2023/02/15 05:12:17;;;;;;;41.80;18.93;;;;;;;-4.06;100.00;102203.34;5034781;28;20484;-72
2023/02/15 05:14:44;;;;;;;34.50;16.23;;;;;;;-3.99;100.00;102200.38;5038511;28;21007;-72
2023/02/15 05:17:10;;;;;;;41.57;18.03;;;;;;;-3.97;100.00;102201.34;5017866;28;20462;-72
2023/02/15 05:19:36;;;;;;;35.97;16.87;;;;;;;-3.99;100.00;102197.81;5036551;28;20460;-72
2023/02/15 05:22:03;;;;;;;37.27;16.23;;;;;;;-3.94;100.00;102201.53;5037906;28;20475;-72
2023/02/15 05:29:59;;;;;;;37.63;16.33;;;;;;;-4.07;100.00;102202.44;5038898;28;20467;-72
2023/02/15 05:32:25;;;;;;;35.10;15.70;;;;;;;-3.97;100.00;102208.06;5039055;28;20496;-72
2023/02/15 05:34:52;;;;;;;35.53;15.83;;;;;;;-4.11;100.00;102205.63;5021231;28;20462;-72
2023/02/15 05:37:18;;;;;;;32.27;16.20;;;;;;;-4.06;100.00;102204.22;5041282;28;20550;-72
2023/02/15 05:39:45;;;;;;;37.13;16.87;;;;;;;-4.13;100.00;102204.66;5039575;28;20474;-72
2023/02/15 05:42:11;;;;;;;34.73;16.53;;;;;;;-4.06;100.00;102201.69;5037661;28;20502;-72
2023/02/15 05:44:39;;;;;;;37.63;16.97;;;;;;;-4.05;100.00;102205.09;5038617;28;20485;-72
2023/02/15 05:47:06;;;;;;;40.23;17.20;;;;;;;-4.04;100.00;102207.72;5035806;28;20474;-72
2023/02/15 05:49:33;;;;;;;38.17;16.80;;;;;;;-4.22;100.00;102205.00;5033631;28;20466;-72
2023/02/15 05:51:59;;;;;;;34.23;17.17;;;;;;;-4.31;100.00;102208.63;5038587;28;20484;-72
2023/02/15 05:54:26;;;;;;;36.27;16.23;;;;;;;-4.32;100.00;102207.78;5047057;28;20466;-72
2023/02/15 05:56:52;;;;;;;44.53;18.97;;;;;;;-4.45;100.00;102216.34;5039412;28;20465;-72
2023/02/15 05:59:18;;;;;;;40.40;17.37;;;;;;;-4.52;100.00;102208.22;5046903;28;20460;-72
2023/02/15 06:01:46;;;;;;;47.43;18.40;;;;;;;-4.67;100.00;102208.19;5038317;28;20504;-71
2023/02/15 06:04:13;;;;;;;44.60;18.97;;;;;;;-4.70;100.00;102201.22;5046979;28;20505;-71
2023/02/15 06:06:40;;;;;;;43.27;18.43;;;;;;;-4.66;100.00;102198.09;5044697;28;20976;-72
2023/02/15 06:09:06;;;;;;;49.60;17.43;;;;;;;-4.57;100.00;102202.88;5033651;28;20528;-72
2023/02/15 06:11:32;;;;;;;42.13;19.33;;;;;;;-4.29;100.00;102204.50;5048953;28;20504;-71
2023/02/15 06:13:59;;;;;;;42.40;18.43;;;;;;;-4.23;100.00;102199.81;5047471;28;20505;-72
2023/02/15 06:16:25;;;;;;;41.97;19.27;;;;;;;-4.39;100.00;102201.44;5044729;28;20505;-72
2023/02/15 06:18:53;;;;;;;45.00;18.77;;;;;;;-4.37;100.00;102193.88;5044771;28;20845;-72
2023/02/15 06:21:19;;;;;;;43.17;19.60;;;;;;;-4.38;100.00;102198.09;5032037;28;20490;-72
2023/02/15 06:23:45;;;;;;;46.13;20.27;;;;;;;-4.53;100.00;102204.81;5047938;28;20886;-72
2023/02/15 06:26:12;;;;;;;47.73;19.37;;;;;;;-4.71;100.00;102191.84;5051320;28;20800;-72
2023/02/15 06:28:38;;;;;;;42.67;19.60;;;;;;;-4.68;100.00;102196.25;5051169;28;20458;-73
2023/02/15 06:31:05;;;;;;;47.07;19.23;;;;;;;-4.71;100.00;102193.50;5048658;28;20502;-72
2023/02/15 06:33:33;;;;;;;53.47;19.83;;;;;;;-4.74;100.00;102191.66;5052139;28;20464;-72
2023/02/15 06:36:03;;;;;;;41.37;18.60;;;;;;;-4.73;100.00;102193.44;5049080;28;20467;-72
2023/02/15 06:38:29;;;;;;;45.83;19.17;;;;;;;-4.74;100.00;102184.03;5043870;28;20452;-72
2023/02/15 06:40:57;;;;;;;33.13;16.67;;;;;;;-4.67;100.00;102185.28;5036273;28;20488;-73
2023/02/15 06:43:24;;;;;;;43.80;17.93;;;;;;;-4.71;100.00;102191.84;5023669;28;20579;-72
2023/02/15 06:45:50;;;;;;;39.50;18.63;;;;;;;-4.63;100.00;102182.13;5024284;28;20517;-72
2023/02/15 06:48:16;;;;;;;40.70;18.10;;;;;;;-4.55;100.00;102182.59;5005833;28;20466;-73
2023/02/15 06:50:43;;;;;;;39.93;18.30;;;;;;;-4.52;100.00;102178.56;5008186;28;20464;-72
2023/02/15 06:53:11;;;;;;;44.77;18.20;;;;;;;-4.34;100.00;102178.78;5019903;28;20471;-72
2023/02/15 06:55:37;;;;;;;39.80;17.63;;;;;;;-4.27;100.00;102173.28;5021971;28;20598;-72
2023/02/15 06:58:03;;;;;;;41.57;19.07;;;;;;;-4.29;100.00;102168.84;5019161;28;20473;-73
2023/02/15 07:00:30;;;;;;;47.17;19.23;;;;;;;-4.32;100.00;102163.59;5021161;28;20841;-72
2023/02/15 07:02:57;;;;;;;49.10;21.70;;;;;;;-4.18;100.00;102162.75;5014620;28;20480;-72
2023/02/15 07:05:24;;;;;;;50.47;19.57;;;;;;;-4.17;100.00;102159.38;5019000;28;20930;-72
2023/02/15 07:07:50;;;;;;;56.40;22.83;;;;;;;-4.13;100.00;102170.63;5018858;28;20595;-73
2023/02/15 07:10:18;;;;;;;50.63;21.30;;;;;;;-4.00;100.00;102162.94;5012494;28;20585;-72
2023/02/15 07:12:44;;;;;;;50.80;22.83;;;;;;;-3.97;100.00;102162.22;5018152;28;20491;-72
2023/02/15 07:15:12;;;;;;;52.63;22.60;;;;;;;-3.91;100.00;102152.38;5016659;28;20980;-73
2023/02/15 07:17:38;;;;;;;56.87;25.20;;;;;;;-3.86;100.00;102154.41;4995906;28;20458;-74
2023/02/15 07:20:07;;;;;;;57.83;25.83;;;;;;;-3.81;100.00;102147.03;5016877;28;20484;-73
2023/02/15 07:22:35;;;;;;;57.27;25.07;;;;;;;-3.70;100.00;102145.94;5015695;28;20490;-73
2023/02/15 07:25:02;;;;;;;51.43;21.40;;;;;;;-3.68;100.00;102146.91;5003264;28;20577;-72
2023/02/15 07:27:31;;;;;;;53.27;22.83;;;;;;;-3.63;100.00;102147.19;5003855;28;20465;-72
2023/02/15 07:29:58;;;;;;;56.50;24.93;;;;;;;-3.55;100.00;102151.03;5014584;28;20923;-72
2023/02/15 07:32:24;;;;;;;57.80;25.00;;;;;;;-3.48;100.00;102149.72;5014957;28;20480;-72
2023/02/15 07:34:51;;;;;;;56.53;25.63;;;;;;;-3.43;100.00;102151.72;5002254;28;20482;-72
2023/02/15 07:37:17;;;;;;;56.97;23.20;;;;;;;-3.38;100.00;102159.59;5018568;28;20540;-72
2023/02/15 07:39:43;;;;;;;59.10;25.97;;;;;;;-3.29;100.00;102157.59;5015300;28;20878;-72
2023/02/15 07:42:10;;;;;;;54.93;25.13;;;;;;;-3.22;100.00;102150.25;5016998;28;21033;-71
2023/02/15 07:44:38;;;;;;;61.57;26.30;;;;;;;-3.14;100.00;102151.56;5012647;28;20491;-72
2023/02/15 07:47:04;;;;;;;60.97;25.50;;;;;;;-3.09;100.00;102152.69;5016994;28;20196;-72
2023/02/15 07:49:30;;;;;;;62.80;24.43;;;;;;;-3.06;100.00;102148.63;5017996;28;20840;-72
2023/02/15 07:51:57;;;;;;;73.37;27.83;;;;;;;-2.97;100.00;102148.25;5017855;28;20220;-72
2023/02/15 07:54:23;;;;;;;66.93;28.23;;;;;;;-2.90;100.00;102146.91;5017330;28;20192;-72
2023/02/15 07:56:50;;;;;;;59.07;26.67;;;;;;;-2.80;100.00;102149.13;4995687;28;20727;-72
2023/02/15 07:59:16;;;;;;;66.40;26.57;;;;;;;-2.75;100.00;102141.72;5002279;28;20497;-72
2023/02/15 08:01:44;;;;;;;62.60;27.00;;;;;;;-2.64;100.00;102138.03;5009592;28;20227;-72
2023/02/15 08:04:10;;;;;;;65.77;26.87;;;;;;;-2.56;100.00;102135.88;4998590;28;20220;-72
2023/02/15 08:06:38;;;;;;;69.40;28.70;;;;;;;-2.49;100.00;102140.50;5006797;28;20295;-72
2023/02/15 08:09:05;;;;;;;61.30;25.77;;;;;;;-2.40;100.00;102135.00;5009463;28;20208;-72
2023/02/15 08:11:36;;;;;;;66.10;26.93;;;;;;;-2.32;100.00;102133.72;4998715;28;20303;-73
2023/02/15 08:14:04;;;;;;;67.60;27.03;;;;;;;-2.22;100.00;102138.47;5017783;28;20230;-72
2023/02/15 08:16:33;;;;;;;76.97;28.77;;;;;;;-2.12;100.00;102135.56;5016133;28;20606;-73
2023/02/15 08:19:03;;;;;;;64.97;26.87;;;;;;;-2.02;100.00;102131.81;5013754;28;20209;-72
2023/02/15 08:21:30;;;;;;;63.53;25.47;;;;;;;-1.94;100.00;102119.38;4997761;28;20263;-73
2023/02/15 08:23:58;;;;;;;72.00;27.40;;;;;;;-1.82;100.00;102119.13;5005093;28;20216;-73
2023/02/15 08:26:25;;;;;;;76.07;26.80;;;;;;;-1.74;100.00;102113.56;5019472;28;20200;-72
2023/02/15 08:28:52;;;;;;;86.70;28.90;;;;;;;-1.61;100.00;102115.03;5021329;28;20188;-73
2023/02/15 08:31:18;;;;;;;96.57;29.83;;;;;;;-1.52;100.00;102115.44;5018044;28;20376;-72
2023/02/15 08:33:46;;;;;;;93.03;30.63;;;;;;;-1.42;100.00;102111.66;5019094;28;20203;-73
2023/02/15 08:36:16;;;;;;;86.87;31.50;;;;;;;-1.30;100.00;102107.91;5022736;28;20206;-73
2023/02/15 08:38:43;;;;;;;78.77;28.87;;;;;;;-1.20;100.00;102102.41;5017380;28;20680;-72
2023/02/15 08:41:12;;;;;;;72.77;27.40;;;;;;;-1.08;100.00;102102.94;4986789;28;1027379;-73
2023/02/15 08:43:39;;;;;;;80.60;31.00;;;;;;;-0.94;100.00;102105.28;5021296;28;20200;-72
2023/02/15 08:46:05;;;;;;;80.57;27.83;;;;;;;-0.79;100.00;102100.84;5020045;28;20286;-72
2023/02/15 08:48:32;;;;;;;69.90;27.57;;;;;;;-0.73;100.00;102095.97;5018274;28;20688;-73
2023/02/15 08:50:58;;;;;;;86.57;28.20;;;;;;;-0.66;100.00;102090.28;5020819;28;20624;-73
2023/02/15 08:53:26;;;;;;;80.07;27.00;;;;;;;-0.51;100.00;102086.63;5019838;28;20201;-72
2023/02/15 08:55:57;;;;;;;91.43;29.17;;;;;;;-0.46;100.00;102083.47;5023338;28;20192;-72
2023/02/15 08:58:23;;;;;;;78.73;30.03;;;;;;;-0.40;100.00;102081.16;5005058;28;20270;-72
2023/02/15 09:00:50;;;;;;;74.83;28.93;;;;;;;-0.28;100.00;102077.34;5019522;28;20223;-72
2023/02/15 09:03:16;;;;;;;91.97;30.33;;;;;;;-0.17;100.00;102076.13;5017003;28;20196;-73
2023/02/15 09:05:43;;;;;;;101.67;31.67;;;;;;;-0.05;100.00;102073.19;5018412;28;20216;-72
2023/02/15 09:08:09;;;;;;;74.47;28.63;;;;;;;0.00;100.00;102061.44;5012614;28;20199;-73
2023/02/15 09:10:37;;;;;;;96.80;30.40;;;;;;;0.05;100.00;102067.59;5003658;28;20211;-72
2023/02/15 09:13:04;;;;;;;89.03;30.17;;;;;;;0.11;100.00;102072.97;5023126;28;20199;-73
2023/02/15 09:15:30;;;;;;;98.33;31.03;;;;;;;0.27;100.00;102061.63;5016319;28;20188;-72
2023/02/15 09:17:58;;;;;;;85.97;30.30;;;;;;;0.42;100.00;102065.59;5021605;28;20210;-73
2023/02/15 09:20:25;;;;;;;90.10;29.30;;;;;;;0.46;100.00;102068.34;5019306;28;20254;-72
2023/02/15 09:22:52;;;;;;;93.23;29.83;;;;;;;0.50;100.00;102067.63;5022498;28;20208;-72
2023/02/15 09:25:18;;;;;;;96.93;31.10;;;;;;;0.57;100.00;102061.91;5025637;28;20222;-72
2023/02/15 09:27:46;;;;;;;111.73;32.43;;;;;;;0.65;100.00;102059.66;5033244;28;20210;-73
2023/02/15 09:30:14;;;;;;;98.27;30.20;;;;;;;0.79;100.00;102065.28;5031388;28;20200;-72
2023/02/15 09:32:40;;;;;;;104.83;31.87;;;;;;;0.93;100.00;102061.56;5021260;28;20602;-72
2023/02/15 09:35:07;;;;;;;107.90;32.37;;;;;;;1.03;100.00;102061.88;5026098;28;20200;-72
2023/02/15 09:37:33;;;;;;;104.40;31.23;;;;;;;1.08;100.00;102055.22;5034521;28;20595;-73
2023/02/15 09:40:00;;;;;;;98.70;30.97;;;;;;;1.22;100.00;102053.13;5033621;28;20208;-72
2023/02/15 09:42:43;;;;;;;108.37;32.20;;;;;;;1.29;100.00;102055.09;5025499;28;20223;-72
2023/02/15 09:45:27;;;;;;;111.90;31.90;;;;;;;1.39;100.00;102057.16;5024030;28;20220;-72
2023/02/15 09:48:10;;;;;;;104.03;31.07;;;;;;;1.51;100.00;102051.53;5026785;28;20201;-72
2023/02/15 09:50:46;;;;;;;118.50;31.70;;;;;;;1.61;100.00;102052.75;5026225;28;20579;-72
2023/02/15 09:53:24;;;;;;;109.70;31.80;;;;;;;1.73;100.00;102049.72;5018777;28;20207;-72
2023/02/15 09:55:59;;;;;;;108.27;31.03;;;;;;;1.84;100.00;102048.34;5015572;28;20287;-72
2023/02/15 09:58:38;;;;;;;107.67;29.23;;;;;;;1.90;100.00;102051.13;5027977;28;20197;-72
2023/02/15 10:01:19;;;;;;;110.07;30.70;;;;;;;1.97;100.00;102037.66;5002624;28;20231;-72
2023/02/15 10:03:58;;;;;;;106.27;29.73;;;;;;;2.09;100.00;102037.13;5017914;28;20196;-72
2023/02/15 10:06:38;;;;;;;112.10;30.47;;;;;;;2.20;100.00;102037.47;5020154;28;20195;-73
2023/02/15 10:09:20;;;;;;;111.40;31.10;;;;;;;2.27;100.00;102031.72;5000944;28;20812;-72
2023/02/15 10:12:04;;;;;;;112.63;30.63;;;;;;;2.38;100.00;102037.19;5024545;28;20222;-72
2023/02/15 10:14:48;;;;;;;106.37;30.97;;;;;;;2.51;100.00;102033.25;5027132;28;20575;-72
2023/02/15 10:17:34;;;;;;;134.47;35.27;;;;;;;2.65;100.00;102035.38;5011197;28;20207;-73
2023/02/15 10:20:14;;;;;;;128.10;33.33;;;;;;;2.73;100.00;102038.22;5026463;28;20204;-72
2023/02/15 10:22:55;;;;;;;108.93;31.13;;;;;;;2.83;100.00;102041.91;5020075;28;20575;-72
2023/02/15 10:25:36;;;;;;;122.30;33.77;;;;;;;2.92;100.00;102030.97;4997522;28;20231;-72
2023/02/15 10:28:07;;;;;;;110.43;30.63;;;;;;;3.06;100.00;102033.94;4997135;28;20207;-72
2023/02/15 10:30:42;;;;;;;126.33;34.63;;;;;;;3.13;100.00;102029.00;5015521;28;20758;-72
2023/02/15 10:33:21;;;;;;;130.37;32.30;;;;;;;3.20;100.00;102033.50;5012373;28;20442;-72
2023/02/15 10:35:59;;;;;;;121.97;33.67;;;;;;;3.39;100.00;102015.91;5024518;28;20204;-72
2023/02/15 10:38:35;;;;;;;141.33;33.23;;;;;;;3.49;100.00;102025.63;5027838;28;20204;-72
2023/02/15 10:41:15;;;;;;;129.87;32.53;;;;;;;3.56;100.00;102022.38;5022795;28;20227;-72
2023/02/15 10:43:58;;;;;;;131.50;32.67;;;;;;;3.69;100.00;102027.84;5004397;28;20297;-72
2023/02/15 10:46:41;;;;;;;107.60;29.60;;;;;;;3.77;100.00;102018.59;5027385;28;20228;-72
2023/02/15 10:49:24;;;;;;;123.87;32.13;;;;;;;3.88;100.00;102011.97;5016835;28;20232;-72
2023/02/15 10:52:03;;;;;;;112.00;31.47;;;;;;;3.94;100.00;102016.38;4994817;28;20612;-72
2023/02/15 10:54:37;;;;;;;110.90;30.33;;;;;;;3.98;100.00;102015.66;5024533;28;20215;-72
2023/02/15 10:57:14;;;;;;;126.13;33.03;;;;;;;4.11;100.00;102011.63;5026277;28;20871;-72
2023/02/15 10:59:57;;;;;;;139.23;31.97;;;;;;;4.23;100.00;102000.72;5025546;28;20209;-72
2023/02/15 11:02:36;;;;;;;125.80;31.17;;;;;;;4.32;100.00;102004.34;5023451;28;20230;-72
2023/02/15 11:05:18;;;;;;;113.57;30.97;;;;;;;4.50;100.00;102003.00;5026005;28;20217;-72
2023/02/15 11:07:48;;;;;;;124.67;31.80;;;;;;;4.59;100.00;102013.56;5016633;28;20216;-72
2023/02/15 11:10:27;;;;;;;128.03;31.20;;;;;;;4.66;100.00;102007.66;5025653;28;20643;-72
2023/02/15 11:12:56;;;;;;;123.60;31.60;;;;;;;4.80;100.00;102013.13;5017732;28;20795;-73
2023/02/15 11:15:29;;;;;;;115.50;30.13;;;;;;;4.86;100.00;102007.19;5021931;28;20200;-72
2023/02/15 11:18:00;;;;;;;111.30;30.63;;;;;;;4.94;100.00;102000.44;5019648;28;20687;-72
2023/02/15 11:20:34;;;;;;;105.47;30.57;;;;;;;5.03;100.00;101991.97;5004296;28;20211;-72
2023/02/15 11:23:02;;;;;;;104.40;29.07;;;;;;;5.13;100.00;101994.75;5027420;28;20228;-73
2023/02/15 11:25:33;;;;;;;103.27;31.77;;;;;;;5.22;100.00;101999.22;5025412;28;20577;-72
2023/02/15 11:28:03;;;;;;;96.83;28.50;;;;;;;5.24;100.00;101988.91;5017975;28;20713;-72
2023/02/15 11:30:43;;;;;;;80.60;26.63;;;;;;;5.29;100.00;101988.16;5017252;28;20207;-72
2023/02/15 11:33:19;;;;;;;81.70;26.73;;;;;;;5.34;100.00;101993.41;4997728;28;20204;-72
2023/02/15 11:35:53;;;;;;;76.90;25.20;;;;;;;5.45;100.00;101989.31;5015563;28;20195;-72
2023/02/15 11:38:24;;;;;;;71.87;24.70;;;;;;;5.65;100.00;101983.59;5016859;28;20207;-72